sensor_id;sensor_type;location;lat;lon;timestamp;pressure;altitude;pressure_sealevel;temperature;humidity
63708;BME280;67643;-34.198;22.084;2023-07-29T00:00:04;99713.38;;;16.18;43.40
63708;BME280;67643;-34.198;22.084;2023-07-29T00:02:32;99711.12;;;15.98;42.90
63708;BME280;67643;-34.198;22.084;2023-07-29T00:05:01;99704.86;;;16.26;43.03
63708;BME280;67643;-34.198;22.084;2023-07-29T00:07:30;99697.04;;;16.25;43.32
63708;BME280;67643;-34.198;22.084;2023-07-29T00:09:58;99679.60;;;16.07;42.82
63708;BME280;67643;-34.198;22.084;2023-07-29T00:12:27;99683.73;;;15.95;42.86
63708;BME280;67643;-34.198;22.084;2023-07-29T00:14:55;99692.76;;;16.13;43.05
63708;BME280;67643;-34.198;22.084;2023-07-29T00:17:24;99686.74;;;16.04;42.76
63708;BME280;67643;-34.198;22.084;2023-07-29T00:19:52;99692.28;;;15.63;43.14
63708;BME280;67643;-34.198;22.084;2023-07-29T00:22:21;99689.33;;;15.87;43.05
63708;BME280;67643;-34.198;22.084;2023-07-29T00:24:52;99683.32;;;15.80;43.57
63708;BME280;67643;-34.198;22.084;2023-07-29T00:27:21;99678.69;;;15.86;43.54
63708;BME280;67643;-34.198;22.084;2023-07-29T00:29:49;99681.31;;;15.94;43.19
63708;BME280;67643;-34.198;22.084;2023-07-29T00:32:18;99670.50;;;15.94;43.35
63708;BME280;67643;-34.198;22.084;2023-07-29T00:34:46;99672.54;;;15.94;43.19
63708;BME280;67643;-34.198;22.084;2023-07-29T00:37:15;99682.36;;;15.86;43.34
63708;BME280;67643;-34.198;22.084;2023-07-29T00:39:44;99672.25;;;16.00;43.41
63708;BME280;67643;-34.198;22.084;2023-07-29T00:42:12;99686.18;;;15.86;42.97
63708;BME280;67643;-34.198;22.084;2023-07-29T00:44:41;99684.85;;;16.03;43.15
63708;BME280;67643;-34.198;22.084;2023-07-29T00:47:09;99684.71;;;15.79;43.06
63708;BME280;67643;-34.198;22.084;2023-07-29T00:49:39;99692.78;;;15.96;43.13
63708;BME280;67643;-34.198;22.084;2023-07-29T00:52:08;99698.12;;;15.78;42.91
63708;BME280;67643;-34.198;22.084;2023-07-29T00:54:36;99692.59;;;15.95;43.00
63708;BME280;67643;-34.198;22.084;2023-07-29T00:57:06;99690.97;;;15.66;42.68
63708;BME280;67643;-34.198;22.084;2023-07-29T00:59:35;99698.50;;;15.82;42.88
63708;BME280;67643;-34.198;22.084;2023-07-29T01:02:04;99699.26;;;15.82;42.72
63708;BME280;67643;-34.198;22.084;2023-07-29T01:04:32;99693.80;;;15.78;43.18
63708;BME280;67643;-34.198;22.084;2023-07-29T01:07:10;99699.21;;;15.90;43.03
63708;BME280;67643;-34.198;22.084;2023-07-29T01:09:50;99698.27;;;15.76;43.24
63708;BME280;67643;-34.198;22.084;2023-07-29T01:12:30;99686.12;;;15.78;42.93
63708;BME280;67643;-34.198;22.084;2023-07-29T01:15:10;99679.57;;;15.77;42.72
63708;BME280;67643;-34.198;22.084;2023-07-29T01:17:43;99693.94;;;15.75;42.71
63708;BME280;67643;-34.198;22.084;2023-07-29T01:20:16;99706.31;;;15.52;43.03
63708;BME280;67643;-34.198;22.084;2023-07-29T01:22:45;99706.66;;;15.28;42.77
63708;BME280;67643;-34.198;22.084;2023-07-29T01:25:14;99708.79;;;15.64;42.44
63708;BME280;67643;-34.198;22.084;2023-07-29T01:27:45;99713.67;;;15.33;42.72
63708;BME280;67643;-34.198;22.084;2023-07-29T01:30:14;99719.41;;;15.41;43.42
63708;BME280;67643;-34.198;22.084;2023-07-29T01:32:47;99723.24;;;15.25;42.53
63708;BME280;67643;-34.198;22.084;2023-07-29T01:35:23;99701.39;;;15.31;42.78
63708;BME280;67643;-34.198;22.084;2023-07-29T01:37:56;99677.72;;;15.19;43.01
63708;BME280;67643;-34.198;22.084;2023-07-29T01:40:28;99663.08;;;15.29;42.89
63708;BME280;67643;-34.198;22.084;2023-07-29T01:42:56;99674.94;;;15.45;42.75
63708;BME280;67643;-34.198;22.084;2023-07-29T01:45:25;99688.07;;;15.48;42.90
63708;BME280;67643;-34.198;22.084;2023-07-29T01:47:53;99696.36;;;15.29;42.98
63708;BME280;67643;-34.198;22.084;2023-07-29T01:50:22;99700.53;;;15.25;42.69
63708;BME280;67643;-34.198;22.084;2023-07-29T01:52:50;99695.19;;;15.73;42.03
63708;BME280;67643;-34.198;22.084;2023-07-29T01:55:19;99699.75;;;15.61;42.87
63708;BME280;67643;-34.198;22.084;2023-07-29T01:57:47;99703.38;;;15.40;42.73
63708;BME280;67643;-34.198;22.084;2023-07-29T02:00:16;99688.46;;;15.35;42.69
63708;BME280;67643;-34.198;22.084;2023-07-29T02:02:45;99675.93;;;15.31;42.76
63708;BME280;67643;-34.198;22.084;2023-07-29T02:05:13;99679.18;;;15.08;42.73
63708;BME280;67643;-34.198;22.084;2023-07-29T02:07:42;99680.10;;;15.27;42.76
63708;BME280;67643;-34.198;22.084;2023-07-29T02:10:10;99673.59;;;15.32;42.46
63708;BME280;67643;-34.198;22.084;2023-07-29T02:12:39;99677.07;;;14.93;42.18
63708;BME280;67643;-34.198;22.084;2023-07-29T02:15:08;99677.45;;;15.25;42.13
63708;BME280;67643;-34.198;22.084;2023-07-29T02:17:37;99680.41;;;14.93;43.11
63708;BME280;67643;-34.198;22.084;2023-07-29T02:20:06;99682.68;;;14.92;42.67
63708;BME280;67643;-34.198;22.084;2023-07-29T02:22:35;99674.56;;;15.18;42.58
63708;BME280;67643;-34.198;22.084;2023-07-29T02:25:04;99672.19;;;14.92;43.11
63708;BME280;67643;-34.198;22.084;2023-07-29T02:27:33;99668.16;;;15.18;42.84
63708;BME280;67643;-34.198;22.084;2023-07-29T02:30:02;99665.00;;;15.03;42.91
63708;BME280;67643;-34.198;22.084;2023-07-29T02:32:31;99664.45;;;14.74;42.62
63708;BME280;67643;-34.198;22.084;2023-07-29T02:34:59;99658.74;;;15.16;42.52
63708;BME280;67643;-34.198;22.084;2023-07-29T02:37:28;99657.78;;;14.57;42.66
63708;BME280;67643;-34.198;22.084;2023-07-29T02:39:56;99655.31;;;15.18;42.71
63708;BME280;67643;-34.198;22.084;2023-07-29T02:42:25;99658.21;;;15.12;42.72
63708;BME280;67643;-34.198;22.084;2023-07-29T02:44:54;99657.02;;;14.81;43.08
63708;BME280;67643;-34.198;22.084;2023-07-29T02:47:22;99655.28;;;14.88;42.49
63708;BME280;67643;-34.198;22.084;2023-07-29T02:49:51;99656.87;;;14.99;42.78
63708;BME280;67643;-34.198;22.084;2023-07-29T02:52:19;99650.34;;;14.83;42.87
63708;BME280;67643;-34.198;22.084;2023-07-29T02:54:48;99642.92;;;14.97;42.97
63708;BME280;67643;-34.198;22.084;2023-07-29T02:57:16;99641.96;;;15.05;42.54
63708;BME280;67643;-34.198;22.084;2023-07-29T02:59:45;99640.98;;;14.80;42.91
63708;BME280;67643;-34.198;22.084;2023-07-29T03:02:14;99641.35;;;14.91;42.79
63708;BME280;67643;-34.198;22.084;2023-07-29T03:04:42;99635.10;;;14.86;42.70
63708;BME280;67643;-34.198;22.084;2023-07-29T03:07:11;99631.91;;;15.06;42.73
63708;BME280;67643;-34.198;22.084;2023-07-29T03:09:39;99627.57;;;14.85;42.67
63708;BME280;67643;-34.198;22.084;2023-07-29T03:12:08;99627.81;;;14.89;42.69
63708;BME280;67643;-34.198;22.084;2023-07-29T03:14:36;99623.47;;;14.86;42.96
63708;BME280;67643;-34.198;22.084;2023-07-29T03:17:06;99615.86;;;14.61;42.93
63708;BME280;67643;-34.198;22.084;2023-07-29T03:19:34;99612.72;;;14.82;42.63
63708;BME280;67643;-34.198;22.084;2023-07-29T03:22:03;99616.20;;;14.76;43.11
63708;BME280;67643;-34.198;22.084;2023-07-29T03:24:31;99611.91;;;14.87;42.50
63708;BME280;67643;-34.198;22.084;2023-07-29T03:27:00;99609.24;;;14.70;42.87
63708;BME280;67643;-34.198;22.084;2023-07-29T03:29:28;99602.40;;;14.80;42.92
63708;BME280;67643;-34.198;22.084;2023-07-29T03:31:58;99603.65;;;14.72;42.79
63708;BME280;67643;-34.198;22.084;2023-07-29T03:34:27;99609.31;;;14.65;42.75
63708;BME280;67643;-34.198;22.084;2023-07-29T03:36:55;99603.87;;;14.91;43.13
63708;BME280;67643;-34.198;22.084;2023-07-29T03:39:24;99604.50;;;14.77;42.55
63708;BME280;67643;-34.198;22.084;2023-07-29T03:41:52;99602.17;;;14.82;42.47
63708;BME280;67643;-34.198;22.084;2023-07-29T03:44:21;99599.95;;;14.52;42.75
63708;BME280;67643;-34.198;22.084;2023-07-29T03:46:49;99599.55;;;14.86;42.82
63708;BME280;67643;-34.198;22.084;2023-07-29T03:49:18;99600.60;;;14.54;42.91
63708;BME280;67643;-34.198;22.084;2023-07-29T03:51:47;99605.58;;;14.74;42.44
63708;BME280;67643;-34.198;22.084;2023-07-29T03:54:16;99601.80;;;14.57;43.11
63708;BME280;67643;-34.198;22.084;2023-07-29T03:56:45;99602.08;;;14.93;42.78
63708;BME280;67643;-34.198;22.084;2023-07-29T03:59:13;99601.95;;;14.85;42.40
63708;BME280;67643;-34.198;22.084;2023-07-29T04:01:42;99608.42;;;14.45;42.32
63708;BME280;67643;-34.198;22.084;2023-07-29T04:04:10;99605.48;;;14.49;42.98
63708;BME280;67643;-34.198;22.084;2023-07-29T04:06:39;99602.85;;;14.49;42.66
63708;BME280;67643;-34.198;22.084;2023-07-29T04:09:07;99602.32;;;14.76;42.43
63708;BME280;67643;-34.198;22.084;2023-07-29T04:11:36;99613.60;;;14.73;42.35
63708;BME280;67643;-34.198;22.084;2023-07-29T04:14:04;99601.99;;;14.68;42.46
63708;BME280;67643;-34.198;22.084;2023-07-29T04:16:33;99601.26;;;14.60;42.43
63708;BME280;67643;-34.198;22.084;2023-07-29T04:19:02;99600.08;;;14.94;42.36
63708;BME280;67643;-34.198;22.084;2023-07-29T04:21:30;99599.99;;;14.35;42.49
63708;BME280;67643;-34.198;22.084;2023-07-29T04:23:59;99596.34;;;14.67;42.21
63708;BME280;67643;-34.198;22.084;2023-07-29T04:26:27;99592.68;;;14.55;41.81
63708;BME280;67643;-34.198;22.084;2023-07-29T04:28:56;99595.01;;;14.61;42.13
63708;BME280;67643;-34.198;22.084;2023-07-29T04:31:24;99601.92;;;14.90;42.15
63708;BME280;67643;-34.198;22.084;2023-07-29T04:33:54;99608.31;;;14.72;41.84
63708;BME280;67643;-34.198;22.084;2023-07-29T04:36:22;99605.83;;;14.43;42.67
63708;BME280;67643;-34.198;22.084;2023-07-29T04:38:51;99606.24;;;14.74;42.38
63708;BME280;67643;-34.198;22.084;2023-07-29T04:41:19;99599.61;;;14.56;42.51
63708;BME280;67643;-34.198;22.084;2023-07-29T04:43:48;99595.12;;;14.84;42.19
63708;BME280;67643;-34.198;22.084;2023-07-29T04:46:16;99592.57;;;14.67;42.41
63708;BME280;67643;-34.198;22.084;2023-07-29T04:48:45;99580.09;;;14.80;42.71
63708;BME280;67643;-34.198;22.084;2023-07-29T04:51:13;99581.34;;;14.89;42.17
63708;BME280;67643;-34.198;22.084;2023-07-29T04:53:42;99588.13;;;15.04;42.12
63708;BME280;67643;-34.198;22.084;2023-07-29T04:56:11;99598.86;;;14.50;42.26
63708;BME280;67643;-34.198;22.084;2023-07-29T04:58:39;99591.67;;;14.68;42.82
63708;BME280;67643;-34.198;22.084;2023-07-29T05:01:08;99591.23;;;14.57;42.25
63708;BME280;67643;-34.198;22.084;2023-07-29T05:03:36;99600.50;;;14.73;42.80
63708;BME280;67643;-34.198;22.084;2023-07-29T05:06:05;99603.30;;;14.75;42.63
63708;BME280;67643;-34.198;22.084;2023-07-29T05:08:33;99606.12;;;14.82;42.61
63708;BME280;67643;-34.198;22.084;2023-07-29T05:11:02;99603.72;;;14.84;43.39
63708;BME280;67643;-34.198;22.084;2023-07-29T05:13:31;99600.33;;;15.03;42.49
63708;BME280;67643;-34.198;22.084;2023-07-29T05:15:59;99603.36;;;15.32;43.03
63708;BME280;67643;-34.198;22.084;2023-07-29T05:18:28;99610.65;;;14.89;43.73
63708;BME280;67643;-34.198;22.084;2023-07-29T05:20:56;99618.13;;;14.94;43.48
63708;BME280;67643;-34.198;22.084;2023-07-29T05:23:25;99612.74;;;15.08;43.14
63708;BME280;67643;-34.198;22.084;2023-07-29T05:25:53;99603.63;;;15.13;42.05
63708;BME280;67643;-34.198;22.084;2023-07-29T05:28:22;99608.41;;;14.74;42.99
63708;BME280;67643;-34.198;22.084;2023-07-29T05:30:50;99609.53;;;15.08;41.95
63708;BME280;67643;-34.198;22.084;2023-07-29T05:33:19;99613.18;;;14.53;43.79
63708;BME280;67643;-34.198;22.084;2023-07-29T05:35:48;99615.34;;;14.90;43.61
63708;BME280;67643;-34.198;22.084;2023-07-29T05:38:17;99616.84;;;14.83;43.20
63708;BME280;67643;-34.198;22.084;2023-07-29T05:40:47;99620.41;;;14.82;43.21
63708;BME280;67643;-34.198;22.084;2023-07-29T05:43:16;99621.39;;;14.87;42.70
63708;BME280;67643;-34.198;22.084;2023-07-29T05:45:44;99620.02;;;15.02;43.09
63708;BME280;67643;-34.198;22.084;2023-07-29T05:48:13;99632.20;;;14.74;43.73
63708;BME280;67643;-34.198;22.084;2023-07-29T05:50:42;99632.41;;;14.82;42.77
63708;BME280;67643;-34.198;22.084;2023-07-29T05:53:10;99634.29;;;15.28;42.86
63708;BME280;67643;-34.198;22.084;2023-07-29T05:55:38;99625.44;;;14.97;43.45
63708;BME280;67643;-34.198;22.084;2023-07-29T05:58:07;99637.01;;;14.95;42.42
63708;BME280;67643;-34.198;22.084;2023-07-29T06:00:36;99630.62;;;14.97;43.03
63708;BME280;67643;-34.198;22.084;2023-07-29T06:03:04;99626.33;;;14.97;42.72
63708;BME280;67643;-34.198;22.084;2023-07-29T06:05:33;99636.09;;;14.65;42.66
63708;BME280;67643;-34.198;22.084;2023-07-29T06:08:01;99633.00;;;15.31;42.07
63708;BME280;67643;-34.198;22.084;2023-07-29T06:10:30;99627.80;;;15.13;42.61
63708;BME280;67643;-34.198;22.084;2023-07-29T06:12:59;99621.58;;;15.55;42.81
63708;BME280;67643;-34.198;22.084;2023-07-29T06:15:28;99630.57;;;15.56;42.45
63708;BME280;67643;-34.198;22.084;2023-07-29T06:17:56;99622.58;;;15.49;42.65
63708;BME280;67643;-34.198;22.084;2023-07-29T06:20:25;99642.69;;;15.48;42.15
63708;BME280;67643;-34.198;22.084;2023-07-29T06:22:53;99646.60;;;15.68;42.66
63708;BME280;67643;-34.198;22.084;2023-07-29T06:25:22;99651.23;;;15.63;41.90
63708;BME280;67643;-34.198;22.084;2023-07-29T06:27:51;99664.92;;;15.62;42.68
63708;BME280;67643;-34.198;22.084;2023-07-29T06:30:19;99685.25;;;15.30;41.66
63708;BME280;67643;-34.198;22.084;2023-07-29T06:32:48;99677.69;;;15.72;42.83
63708;BME280;67643;-34.198;22.084;2023-07-29T06:35:16;99688.18;;;15.83;42.37
63708;BME280;67643;-34.198;22.084;2023-07-29T06:37:46;99685.85;;;15.60;41.81
63708;BME280;67643;-34.198;22.084;2023-07-29T06:40:14;99677.48;;;15.75;42.06
63708;BME280;67643;-34.198;22.084;2023-07-29T06:42:43;99682.86;;;15.49;40.80
63708;BME280;67643;-34.198;22.084;2023-07-29T06:45:12;99681.00;;;15.47;42.28
63708;BME280;67643;-34.198;22.084;2023-07-29T06:47:40;99685.77;;;15.41;42.19
63708;BME280;67643;-34.198;22.084;2023-07-29T06:50:10;99679.18;;;15.42;40.91
63708;BME280;67643;-34.198;22.084;2023-07-29T06:52:38;99665.13;;;15.46;41.96
63708;BME280;67643;-34.198;22.084;2023-07-29T06:55:07;99666.57;;;15.38;41.48
63708;BME280;67643;-34.198;22.084;2023-07-29T06:57:35;99672.11;;;15.08;40.89
63708;BME280;67643;-34.198;22.084;2023-07-29T07:00:05;99661.37;;;15.31;40.74
63708;BME280;67643;-34.198;22.084;2023-07-29T07:02:34;99664.36;;;14.91;41.36
63708;BME280;67643;-34.198;22.084;2023-07-29T07:05:02;99687.56;;;15.08;40.73
63708;BME280;67643;-34.198;22.084;2023-07-29T07:07:30;99674.40;;;14.93;40.12
63708;BME280;67643;-34.198;22.084;2023-07-29T07:09:59;99680.13;;;15.06;40.64
63708;BME280;67643;-34.198;22.084;2023-07-29T07:12:28;99674.40;;;15.23;39.88
63708;BME280;67643;-34.198;22.084;2023-07-29T07:14:56;99674.36;;;15.28;40.25
63708;BME280;67643;-34.198;22.084;2023-07-29T07:17:25;99673.26;;;15.40;41.15
63708;BME280;67643;-34.198;22.084;2023-07-29T07:19:53;99655.60;;;14.85;40.14
63708;BME280;67643;-34.198;22.084;2023-07-29T07:22:22;99650.77;;;15.03;39.77
63708;BME280;67643;-34.198;22.084;2023-07-29T07:24:51;99639.08;;;15.22;39.47
63708;BME280;67643;-34.198;22.084;2023-07-29T07:27:19;99646.48;;;15.39;38.92
63708;BME280;67643;-34.198;22.084;2023-07-29T07:29:48;99643.23;;;15.28;38.99
63708;BME280;67643;-34.198;22.084;2023-07-29T07:32:16;99653.79;;;14.66;39.65
63708;BME280;67643;-34.198;22.084;2023-07-29T07:34:45;99655.39;;;15.02;40.04
63708;BME280;67643;-34.198;22.084;2023-07-29T07:37:13;99666.45;;;14.70;40.25
63708;BME280;67643;-34.198;22.084;2023-07-29T07:39:43;99643.51;;;14.93;40.25
63708;BME280;67643;-34.198;22.084;2023-07-29T07:42:11;99637.25;;;14.65;39.76
63708;BME280;67643;-34.198;22.084;2023-07-29T07:44:40;99644.66;;;15.23;40.08
63708;BME280;67643;-34.198;22.084;2023-07-29T07:47:09;99626.22;;;14.83;40.47
63708;BME280;67643;-34.198;22.084;2023-07-29T07:49:37;99629.91;;;14.70;41.66
63708;BME280;67643;-34.198;22.084;2023-07-29T07:52:06;99625.36;;;14.38;42.62
63708;BME280;67643;-34.198;22.084;2023-07-29T07:54:35;99602.83;;;14.37;43.18
63708;BME280;67643;-34.198;22.084;2023-07-29T07:57:04;99601.33;;;13.91;43.72
63708;BME280;67643;-34.198;22.084;2023-07-29T07:59:33;99597.00;;;14.14;44.26
63708;BME280;67643;-34.198;22.084;2023-07-29T08:02:02;99592.42;;;13.90;44.79
63708;BME280;67643;-34.198;22.084;2023-07-29T08:04:30;99611.08;;;14.08;45.22
63708;BME280;67643;-34.198;22.084;2023-07-29T08:06:59;99623.78;;;13.91;45.95
63708;BME280;67643;-34.198;22.084;2023-07-29T08:09:27;99630.97;;;13.88;45.70
63708;BME280;67643;-34.198;22.084;2023-07-29T08:11:56;99632.34;;;13.62;45.80
63708;BME280;67643;-34.198;22.084;2023-07-29T08:14:25;99620.01;;;14.26;45.62
63708;BME280;67643;-34.198;22.084;2023-07-29T08:16:54;99612.39;;;14.11;45.55
63708;BME280;67643;-34.198;22.084;2023-07-29T08:19:22;99616.97;;;14.05;45.86
63708;BME280;67643;-34.198;22.084;2023-07-29T08:21:51;99625.82;;;13.87;46.61
63708;BME280;67643;-34.198;22.084;2023-07-29T08:24:20;99637.26;;;14.34;46.28
63708;BME280;67643;-34.198;22.084;2023-07-29T08:26:48;99648.59;;;14.37;45.67
63708;BME280;67643;-34.198;22.084;2023-07-29T10:49:43;99771.14;;;12.52;58.65
63708;BME280;67643;-34.198;22.084;2023-07-29T10:52:14;99765.94;;;13.28;54.48
63708;BME280;67643;-34.198;22.084;2023-07-29T10:54:44;99768.02;;;14.02;52.15
63708;BME280;67643;-34.198;22.084;2023-07-29T10:57:17;99762.16;;;14.35;50.49
63708;BME280;67643;-34.198;22.084;2023-07-29T10:59:58;99759.34;;;15.09;48.61
63708;BME280;67643;-34.198;22.084;2023-07-29T11:02:30;99763.55;;;14.62;48.58
63708;BME280;67643;-34.198;22.084;2023-07-29T11:05:04;99763.71;;;14.78;48.22
63708;BME280;67643;-34.198;22.084;2023-07-29T11:07:44;99768.76;;;15.01;47.69
63708;BME280;67643;-34.198;22.084;2023-07-29T11:10:14;99769.67;;;15.05;47.44
63708;BME280;67643;-34.198;22.084;2023-07-29T11:12:45;99758.21;;;15.16;47.49
63708;BME280;67643;-34.198;22.084;2023-07-29T11:15:16;99764.35;;;15.38;47.46
63708;BME280;67643;-34.198;22.084;2023-07-29T11:17:47;99768.70;;;15.14;47.61
63708;BME280;67643;-34.198;22.084;2023-07-29T11:20:16;99762.30;;;15.21;47.78
63708;BME280;67643;-34.198;22.084;2023-07-29T11:22:45;99771.34;;;15.15;48.05
63708;BME280;67643;-34.198;22.084;2023-07-29T11:25:15;99779.67;;;15.03;48.11
63708;BME280;67643;-34.198;22.084;2023-07-29T11:27:44;99775.73;;;15.10;48.03
63708;BME280;67643;-34.198;22.084;2023-07-29T11:30:14;99776.84;;;15.08;48.19
63708;BME280;67643;-34.198;22.084;2023-07-29T11:32:44;99785.46;;;15.41;48.27
63708;BME280;67643;-34.198;22.084;2023-07-29T11:35:14;99766.56;;;15.30;47.59
63708;BME280;67643;-34.198;22.084;2023-07-29T11:37:45;99765.78;;;15.03;49.48
63708;BME280;67643;-34.198;22.084;2023-07-29T11:40:15;99772.62;;;14.94;47.84
63708;BME280;67643;-34.198;22.084;2023-07-29T11:42:44;99770.79;;;15.52;48.82
63708;BME280;67643;-34.198;22.084;2023-07-29T11:45:14;99772.28;;;15.17;48.20
63708;BME280;67643;-34.198;22.084;2023-07-29T11:47:43;99773.19;;;15.34;48.03
63708;BME280;67643;-34.198;22.084;2023-07-29T11:50:14;99774.54;;;15.53;47.29
63708;BME280;67643;-34.198;22.084;2023-07-29T11:52:44;99772.19;;;15.80;47.53
63708;BME280;67643;-34.198;22.084;2023-07-29T11:55:14;99766.52;;;15.68;46.96
63708;BME280;67643;-34.198;22.084;2023-07-29T11:57:44;99766.76;;;15.65;46.99
63708;BME280;67643;-34.198;22.084;2023-07-29T12:00:13;99760.10;;;15.51;47.65
63708;BME280;67643;-34.198;22.084;2023-07-29T12:02:42;99761.14;;;15.47;47.68
63708;BME280;67643;-34.198;22.084;2023-07-29T12:05:13;99760.93;;;15.33;47.39
63708;BME280;67643;-34.198;22.084;2023-07-29T12:07:43;99764.81;;;15.29;47.27
63708;BME280;67643;-34.198;22.084;2023-07-29T12:10:12;99756.19;;;15.20;47.81
63708;BME280;67643;-34.198;22.084;2023-07-29T14:05:30;99888.49;;;11.17;63.12
63708;BME280;67643;-34.198;22.084;2023-07-29T14:07:58;99874.83;;;12.66;57.45
63708;BME280;67643;-34.198;22.084;2023-07-29T14:10:27;99875.90;;;13.28;54.69
63708;BME280;67643;-34.198;22.084;2023-07-29T14:12:55;99872.23;;;13.90;52.63
63708;BME280;67643;-34.198;22.084;2023-07-29T14:15:24;99885.31;;;14.42;51.34
63708;BME280;67643;-34.198;22.084;2023-07-29T14:17:53;99894.88;;;14.21;50.68
63708;BME280;67643;-34.198;22.084;2023-07-29T14:20:21;99896.41;;;14.72;50.01
63708;BME280;67643;-34.198;22.084;2023-07-29T14:22:50;99904.61;;;14.81;49.68
63708;BME280;67643;-34.198;22.084;2023-07-29T14:25:18;99909.50;;;14.47;49.74
63708;BME280;67643;-34.198;22.084;2023-07-29T14:27:47;99905.68;;;14.64;49.36
63708;BME280;67643;-34.198;22.084;2023-07-29T14:30:15;99899.59;;;14.70;49.14
63708;BME280;67643;-34.198;22.084;2023-07-29T14:32:44;99901.98;;;14.65;48.81
63708;BME280;67643;-34.198;22.084;2023-07-29T14:35:13;99899.07;;;14.82;48.86
63708;BME280;67643;-34.198;22.084;2023-07-29T14:37:41;99887.50;;;14.89;48.58
63708;BME280;67643;-34.198;22.084;2023-07-29T14:40:10;99885.64;;;14.57;48.80
63708;BME280;67643;-34.198;22.084;2023-07-29T14:42:38;99887.66;;;14.84;48.41
63708;BME280;67643;-34.198;22.084;2023-07-29T14:45:07;99882.63;;;14.97;48.02
63708;BME280;67643;-34.198;22.084;2023-07-29T14:47:36;99886.23;;;15.00;48.31
63708;BME280;67643;-34.198;22.084;2023-07-29T14:50:05;99886.75;;;15.12;48.07
63708;BME280;67643;-34.198;22.084;2023-07-29T14:52:34;99898.98;;;14.92;48.41
63708;BME280;67643;-34.198;22.084;2023-07-29T14:55:03;99900.67;;;14.92;48.37
63708;BME280;67643;-34.198;22.084;2023-07-29T14:57:31;99901.87;;;14.61;48.49
63708;BME280;67643;-34.198;22.084;2023-07-29T15:00:00;99902.28;;;14.64;49.02
63708;BME280;67643;-34.198;22.084;2023-07-29T15:02:28;99899.86;;;14.43;49.38
63708;BME280;67643;-34.198;22.084;2023-07-29T15:04:57;99914.33;;;14.70;48.92
63708;BME280;67643;-34.198;22.084;2023-07-29T15:07:26;99923.34;;;14.82;48.55
63708;BME280;67643;-34.198;22.084;2023-07-29T15:09:55;99928.85;;;14.92;48.33
63708;BME280;67643;-34.198;22.084;2023-07-29T15:12:23;99935.39;;;14.85;48.42
63708;BME280;67643;-34.198;22.084;2023-07-29T15:14:52;99952.04;;;14.75;48.46
63708;BME280;67643;-34.198;22.084;2023-07-29T15:17:20;99937.46;;;14.75;48.45
63708;BME280;67643;-34.198;22.084;2023-07-29T15:19:49;99930.57;;;14.69;48.13
63708;BME280;67643;-34.198;22.084;2023-07-29T15:22:18;99936.35;;;14.82;47.88
63708;BME280;67643;-34.198;22.084;2023-07-29T15:24:46;99933.71;;;14.79;47.89
63708;BME280;67643;-34.198;22.084;2023-07-29T15:27:15;99929.28;;;14.87;47.68
63708;BME280;67643;-34.198;22.084;2023-07-29T15:29:43;99930.04;;;14.94;47.51
63708;BME280;67643;-34.198;22.084;2023-07-29T15:32:12;99933.44;;;14.96;47.80
63708;BME280;67643;-34.198;22.084;2023-07-29T15:34:40;99950.12;;;14.79;47.37
63708;BME280;67643;-34.198;22.084;2023-07-29T15:37:08;99944.97;;;15.10;46.74
63708;BME280;67643;-34.198;22.084;2023-07-29T15:39:37;99956.08;;;15.09;47.11
63708;BME280;67643;-34.198;22.084;2023-07-29T15:42:06;99958.58;;;15.13;47.10
63708;BME280;67643;-34.198;22.084;2023-07-29T15:44:35;99960.04;;;15.03;47.18
63708;BME280;67643;-34.198;22.084;2023-07-29T15:47:04;99959.86;;;15.27;46.80
63708;BME280;67643;-34.198;22.084;2023-07-29T15:49:32;99958.84;;;14.97;47.30
63708;BME280;67643;-34.198;22.084;2023-07-29T15:52:01;99960.50;;;15.13;47.49
63708;BME280;67643;-34.198;22.084;2023-07-29T15:54:29;99969.47;;;15.03;47.21
63708;BME280;67643;-34.198;22.084;2023-07-29T15:56:58;99972.69;;;15.03;47.09
63708;BME280;67643;-34.198;22.084;2023-07-29T15:59:26;99976.57;;;14.52;47.61
63708;BME280;67643;-34.198;22.084;2023-07-29T16:01:54;99980.10;;;15.17;47.25
63708;BME280;67643;-34.198;22.084;2023-07-29T16:04:23;99977.24;;;15.03;47.05
63708;BME280;67643;-34.198;22.084;2023-07-29T16:06:52;99986.61;;;15.05;47.04
63708;BME280;67643;-34.198;22.084;2023-07-29T16:09:21;99984.08;;;15.27;47.18
63708;BME280;67643;-34.198;22.084;2023-07-29T16:11:49;99996.29;;;15.28;47.07
63708;BME280;67643;-34.198;22.084;2023-07-29T16:14:18;99988.27;;;14.69;47.29
63708;BME280;67643;-34.198;22.084;2023-07-29T16:16:46;99974.94;;;15.10;47.40
63708;BME280;67643;-34.198;22.084;2023-07-29T16:19:24;99979.49;;;14.84;47.40
63708;BME280;67643;-34.198;22.084;2023-07-29T16:21:52;99983.38;;;14.89;47.27
63708;BME280;67643;-34.198;22.084;2023-07-29T16:24:21;99989.01;;;14.79;47.36
63708;BME280;67643;-34.198;22.084;2023-07-29T16:26:49;99989.34;;;14.78;47.37
63708;BME280;67643;-34.198;22.084;2023-07-29T16:29:17;99994.55;;;15.03;46.89
63708;BME280;67643;-34.198;22.084;2023-07-29T16:31:46;100002.39;;;14.52;47.33
63708;BME280;67643;-34.198;22.084;2023-07-29T16:34:15;99997.26;;;15.09;47.06
63708;BME280;67643;-34.198;22.084;2023-07-29T16:36:43;99995.36;;;14.74;46.86
63708;BME280;67643;-34.198;22.084;2023-07-29T16:39:12;99998.25;;;15.11;46.84
63708;BME280;67643;-34.198;22.084;2023-07-29T16:41:40;100016.87;;;14.85;47.01
63708;BME280;67643;-34.198;22.084;2023-07-29T16:44:09;100016.08;;;14.72;47.26
63708;BME280;67643;-34.198;22.084;2023-07-29T16:46:38;100027.41;;;14.72;47.11
63708;BME280;67643;-34.198;22.084;2023-07-29T16:49:06;100033.93;;;14.73;47.22
63708;BME280;67643;-34.198;22.084;2023-07-29T16:51:35;100040.35;;;14.99;47.16
63708;BME280;67643;-34.198;22.084;2023-07-29T16:54:03;100053.82;;;14.56;47.13
63708;BME280;67643;-34.198;22.084;2023-07-29T16:56:32;100040.12;;;14.53;47.21
63708;BME280;67643;-34.198;22.084;2023-07-29T16:59:00;100049.02;;;14.60;47.44
63708;BME280;67643;-34.198;22.084;2023-07-29T17:01:29;100055.15;;;15.07;47.05